createdAt,value
2019-04-14T00:02:11.945Z,65.45
2019-04-14T00:04:46.495Z,65.63
2019-04-14T00:07:17.143Z,65.71
2019-04-14T00:09:48.155Z,66.01
2019-04-14T00:12:18.751Z,66.33
2019-04-14T00:14:49.535Z,66.48
2019-04-14T00:17:19.762Z,66.54
2019-04-14T00:19:50.225Z,66.67
2019-04-14T00:22:20.623Z,66.98
2019-04-14T00:24:51.110Z,67.30
2019-04-14T00:27:21.497Z,67.52
2019-04-14T00:29:52.462Z,67.77
2019-04-14T00:32:22.818Z,67.88
2019-04-14T00:35:02.000Z,67.99
2019-04-14T00:37:38.050Z,68.07
2019-04-14T00:40:11.364Z,68.30
2019-04-14T00:43:00.604Z,68.24
2019-04-14T00:45:44.477Z,68.25
2019-04-14T00:48:13.136Z,68.55
2019-04-14T00:50:41.056Z,68.94
2019-04-14T00:53:12.167Z,69.23
2019-04-14T00:55:44.345Z,69.68
2019-04-14T00:58:15.020Z,70.13
2019-04-14T01:00:45.176Z,70.60
2019-04-14T01:03:15.543Z,70.86
2019-04-14T01:05:46.298Z,71.37
2019-04-14T01:08:16.657Z,71.67
2019-04-14T01:10:47.640Z,71.57
2019-04-14T01:13:17.955Z,71.73
2019-04-14T01:15:59.640Z,72.00
2019-04-14T01:18:21.259Z,72.31
2019-04-14T01:20:51.440Z,72.40
2019-04-14T01:23:22.045Z,72.74
2019-04-14T01:25:54.103Z,72.77
2019-04-14T01:28:24.487Z,72.79
2019-04-14T01:30:55.087Z,72.88
2019-04-14T01:33:25.752Z,72.93
2019-04-14T01:35:57.328Z,72.82
2019-04-14T01:38:28.013Z,72.67
2019-04-14T01:40:59.831Z,72.52
2019-04-14T01:43:30.027Z,72.31
2019-04-14T01:46:10.728Z,72.00
2019-04-14T01:48:32.470Z,71.82
2019-04-14T01:51:09.303Z,71.72
2019-04-14T01:54:01.769Z,71.78
2019-04-14T01:56:42.858Z,71.90
2019-04-14T01:59:13.495Z,72.10
2019-04-14T02:01:45.675Z,72.37
2019-04-14T02:04:16.283Z,72.66
2019-04-14T02:06:46.812Z,72.89
2019-04-14T02:09:18.643Z,72.96
2019-04-14T02:11:49.350Z,72.94
2019-04-14T02:14:19.327Z,73.04
2019-04-14T02:16:54.114Z,73.08
2019-04-14T02:19:22.042Z,73.48
2019-04-14T02:21:54.126Z,73.53
2019-04-14T02:24:24.633Z,73.81
2019-04-14T02:27:04.000Z,73.91
2019-04-14T02:29:36.114Z,74.03
2019-04-14T02:32:37.166Z,74.10
2019-04-14T02:35:03.018Z,73.99
2019-04-14T02:37:36.177Z,73.90
2019-04-14T02:40:08.206Z,73.99
2019-04-14T02:42:41.902Z,73.92
2019-04-14T02:45:10.393Z,73.87
2019-04-14T02:50:17.155Z,74.15
2019-04-14T02:52:52.005Z,74.20
2019-04-14T02:55:15.851Z,74.07
2019-04-14T02:57:52.640Z,74.20
2019-04-14T03:00:35.576Z,74.21
2019-04-14T03:03:03.551Z,74.21
2019-04-14T03:05:35.841Z,74.43
2019-04-14T03:08:08.377Z,74.42
2019-04-14T03:10:39.883Z,74.66
2019-04-14T03:13:13.130Z,74.76
2019-04-14T03:15:43.523Z,74.78
2019-04-14T03:18:37.857Z,74.76
2019-04-14T03:21:29.928Z,74.88
2019-04-14T03:26:59.366Z,75.02
2019-04-14T03:29:28.859Z,75.39
2019-04-14T03:33:13.732Z,75.40
2019-04-14T03:39:42.695Z,75.41
2019-04-14T03:42:08.670Z,75.31
2019-04-14T03:44:46.067Z,75.41
2019-04-14T03:47:13.456Z,75.27
2019-04-14T03:50:00.918Z,75.24
2019-04-14T03:52:18.961Z,75.21
2019-04-14T03:54:40.568Z,75.25
2019-04-14T03:56:57.643Z,75.29
2019-04-14T03:59:28.260Z,75.26
2019-04-14T04:01:58.591Z,75.29
2019-04-14T04:04:29.441Z,75.13
2019-04-14T04:07:00.024Z,75.24
2019-04-14T04:09:34.459Z,75.04
2019-04-14T04:12:05.288Z,75.10
2019-04-14T04:14:36.362Z,74.87
2019-04-14T04:17:13.102Z,75.00
2019-04-14T04:19:57.875Z,75.00
2019-04-14T04:22:43.437Z,75.13
2019-04-14T04:25:35.491Z,75.12
2019-04-14T04:28:23.442Z,74.97
2019-04-14T04:31:04.919Z,74.96
2019-04-14T04:33:47.912Z,75.09
2019-04-14T04:36:25.276Z,75.17
2019-04-14T04:39:03.874Z,74.93
2019-04-14T04:41:36.350Z,75.00
2019-04-14T04:44:07.223Z,74.76
2019-04-14T04:46:37.693Z,74.60
2019-04-14T04:49:15.092Z,74.64
2019-04-14T04:51:40.182Z,74.24
2019-04-14T04:54:10.329Z,74.31
2019-04-14T04:56:40.628Z,74.33
2019-04-14T04:59:11.042Z,74.32
2019-04-14T05:01:42.717Z,74.10
2019-04-14T05:04:15.430Z,74.44
2019-04-14T05:07:03.593Z,74.45
2019-04-14T05:09:53.457Z,74.23
2019-04-14T05:12:43.421Z,74.58
2019-04-14T05:15:40.278Z,74.43
2019-04-14T05:18:25.218Z,74.38
2019-04-14T05:20:55.661Z,74.17
2019-04-14T05:23:25.738Z,74.00
2019-04-14T05:25:56.192Z,74.19
2019-04-14T05:28:26.718Z,74.13
2019-04-14T05:30:56.987Z,74.07
2019-04-14T05:33:27.283Z,73.93
2019-04-14T05:35:57.520Z,73.88
2019-04-14T05:38:31.840Z,73.56
2019-04-14T05:41:03.146Z,73.51
2019-04-14T05:43:41.583Z,73.51
2019-04-14T05:46:05.737Z,73.27
2019-04-14T05:48:36.570Z,73.39
2019-04-14T05:51:06.984Z,73.43
2019-04-14T05:53:37.230Z,72.96
2019-04-14T05:56:07.976Z,72.90
2019-04-14T05:58:38.326Z,73.54
2019-04-14T06:01:09.642Z,73.53
2019-04-14T06:03:40.774Z,73.36
2019-04-14T06:06:10.755Z,73.49
2019-04-14T06:08:40.730Z,73.09
2019-04-14T06:11:10.959Z,72.76
2019-04-14T06:13:40.965Z,72.86
2019-04-14T06:16:11.473Z,72.97
2019-04-14T06:18:41.381Z,72.62
2019-04-14T06:21:11.729Z,72.43
2019-04-14T06:23:42.024Z,72.32
2019-04-14T06:26:12.439Z,72.10
2019-04-14T06:28:42.390Z,71.84
2019-04-14T06:31:30.943Z,71.38
2019-04-14T06:34:08.575Z,71.22
2019-04-14T06:36:56.880Z,71.12
2019-04-14T06:39:29.340Z,71.23
2019-04-14T06:41:59.959Z,71.19
2019-04-14T06:44:30.224Z,71.34
2019-04-14T06:47:00.954Z,71.32
2019-04-14T06:49:30.874Z,70.70
2019-04-14T06:52:00.885Z,70.61
2019-04-14T06:54:31.194Z,71.22
2019-04-14T06:57:01.452Z,71.16
2019-04-14T06:59:31.396Z,71.29
2019-04-14T07:02:01.917Z,70.66
2019-04-14T07:04:33.960Z,70.94
2019-04-14T07:07:11.748Z,71.19
2019-04-14T07:09:42.048Z,71.74
2019-04-14T07:12:12.410Z,71.67
2019-04-14T07:14:42.350Z,71.14
2019-04-14T07:17:12.610Z,71.58
2019-04-14T07:19:43.536Z,71.60
2019-04-14T07:22:13.856Z,71.97
2019-04-14T07:24:44.022Z,71.32
2019-04-14T07:27:13.979Z,71.40
2019-04-14T07:29:59.844Z,70.78
2019-04-14T07:32:58.050Z,71.23
2019-04-14T07:35:49.646Z,71.47
2019-04-14T07:38:35.751Z,70.96
2019-04-14T07:41:13.015Z,71.28
2019-04-14T07:43:54.345Z,70.53
2019-04-14T07:46:40.719Z,70.48
2019-04-14T07:49:32.779Z,70.53
2019-04-14T07:52:21.768Z,71.05
2019-04-14T07:55:16.982Z,70.77
2019-04-14T07:58:21.546Z,70.53
2019-04-14T08:00:59.094Z,71.00
2019-04-14T08:03:48.163Z,71.53
2019-04-14T08:06:18.701Z,71.42
2019-04-14T08:08:48.960Z,72.50
2019-04-14T08:11:19.841Z,72.97
2019-04-14T08:13:50.476Z,73.73
2019-04-14T08:16:20.971Z,74.40
2019-04-14T08:18:51.200Z,74.96
2019-04-14T08:21:21.356Z,76.22
2019-04-14T08:23:51.556Z,76.83
2019-04-14T08:26:21.775Z,77.82
2019-04-14T08:28:51.713Z,78.05
2019-04-14T08:31:21.647Z,78.24
2019-04-14T08:33:51.549Z,78.89
2019-04-14T08:36:22.050Z,79.53
2019-04-14T08:38:52.592Z,80.56
2019-04-14T08:41:23.625Z,80.77
2019-04-14T08:44:05.114Z,80.68
2019-04-14T08:46:44.331Z,80.52
2019-04-14T08:49:24.201Z,80.62
2019-04-14T08:52:20.272Z,79.76
2019-04-14T08:54:57.881Z,79.03
2019-04-14T08:57:59.871Z,79.12
2019-04-14T09:00:52.893Z,79.62
2019-04-14T09:03:41.497Z,80.68
2019-04-14T09:06:28.620Z,80.76
2019-04-14T09:09:15.600Z,81.48
2019-04-14T09:11:50.162Z,81.29
2019-04-14T09:14:20.369Z,81.04
2019-04-14T09:16:50.501Z,80.26
2019-04-14T09:19:20.824Z,80.55
2019-04-14T09:21:51.459Z,82.11
2019-04-14T09:24:21.535Z,82.21
2019-04-14T09:26:51.800Z,82.84
2019-04-14T09:29:21.727Z,82.67
2019-04-14T09:31:52.330Z,83.03
2019-04-14T09:34:22.867Z,84.54
2019-04-14T09:36:53.382Z,83.66
2019-04-14T09:39:23.317Z,83.05
2019-04-14T09:41:53.534Z,82.72
2019-04-14T09:44:23.801Z,81.36
2019-04-14T09:46:54.186Z,82.46
2019-04-14T09:49:24.114Z,83.56
2019-04-14T09:51:54.635Z,83.61
2019-04-14T09:54:25.248Z,83.12
2019-04-14T09:56:56.198Z,83.38
2019-04-14T09:59:27.015Z,83.30
2019-04-14T10:01:57.318Z,82.61
2019-04-14T10:04:27.901Z,81.98
2019-04-14T10:06:58.413Z,81.16
2019-04-14T10:09:28.643Z,82.09
2019-04-14T10:11:58.599Z,81.70
2019-04-14T10:14:29.808Z,81.82
2019-04-14T10:17:01.701Z,81.35
2019-04-14T10:19:32.992Z,81.14
2019-04-14T10:22:02.972Z,80.76
2019-04-14T10:24:33.427Z,81.18
2019-04-14T10:27:03.627Z,80.56
2019-04-14T10:29:34.207Z,80.22
2019-04-14T10:32:04.493Z,80.62
2019-04-14T10:34:35.386Z,81.37
2019-04-14T10:37:05.903Z,81.58
2019-04-14T10:39:36.477Z,81.54
2019-04-14T10:42:06.855Z,80.87
2019-04-14T10:44:36.760Z,82.29
2019-04-14T10:47:07.291Z,82.80
2019-04-14T10:49:37.339Z,82.82
2019-04-14T10:52:07.817Z,84.10
2019-04-14T10:54:37.789Z,84.83
2019-04-14T10:57:08.712Z,84.83
2019-04-14T10:59:38.850Z,85.16
2019-04-14T11:02:09.148Z,84.18
2019-04-14T11:04:39.784Z,83.78
2019-04-14T11:07:22.157Z,84.00
2019-04-14T11:09:53.984Z,82.65
2019-04-14T11:12:25.118Z,82.65
2019-04-14T11:14:55.251Z,83.93
2019-04-14T11:17:25.600Z,84.78
2019-04-14T11:19:56.529Z,85.84
2019-04-14T11:22:27.585Z,86.10
2019-04-14T11:24:57.537Z,85.57
2019-04-14T11:27:27.824Z,85.86
2019-04-14T11:29:58.447Z,86.04
2019-04-14T11:32:50.912Z,85.72
2019-04-14T11:35:31.020Z,85.29
2019-04-14T11:38:19.145Z,86.03
2019-04-14T11:40:51.792Z,86.49
2019-04-14T11:43:21.682Z,85.93
2019-04-14T11:45:52.273Z,86.75
2019-04-14T11:48:22.284Z,85.92
2019-04-14T11:50:58.649Z,85.12
2019-04-14T11:53:36.267Z,84.70
2019-04-14T11:56:20.795Z,83.96
2019-04-14T11:58:49.539Z,84.27
2019-04-14T12:01:39.023Z,84.56
2019-04-14T12:04:37.035Z,85.28
2019-04-14T12:07:13.895Z,85.63
2019-04-14T12:09:59.164Z,85.27
2019-04-14T12:12:29.805Z,84.05
2019-04-14T12:14:59.996Z,83.81
2019-04-14T12:17:30.005Z,83.28
2019-04-14T12:20:00.962Z,82.86
2019-04-14T12:22:31.297Z,83.12
2019-04-14T12:25:01.816Z,83.45
2019-04-14T12:27:32.052Z,84.09
2019-04-14T12:30:03.561Z,83.62
2019-04-14T12:32:35.329Z,84.17
2019-04-14T12:35:05.899Z,83.95
2019-04-14T12:37:36.192Z,84.52
2019-04-14T12:40:07.352Z,85.14
2019-04-14T12:42:47.492Z,85.00
2019-04-14T12:45:43.126Z,85.04
2019-04-14T12:48:37.917Z,85.27
2019-04-14T12:51:12.868Z,85.69
2019-04-14T12:53:43.932Z,85.68
2019-04-14T12:56:15.969Z,86.19
2019-04-14T12:59:05.428Z,85.95
2019-04-14T13:01:39.511Z,85.79
2019-04-14T13:04:09.478Z,85.94
2019-04-14T13:06:39.372Z,84.64
2019-04-14T13:09:09.407Z,85.14
2019-04-14T13:11:39.784Z,85.19
2019-04-14T13:14:12.755Z,85.75
2019-04-14T13:16:42.838Z,86.49
2019-04-14T13:19:13.329Z,86.93
2019-04-14T13:21:43.231Z,87.20
2019-04-14T13:24:13.262Z,86.88
2019-04-14T13:26:43.219Z,85.58
2019-04-14T13:29:13.840Z,85.06
2019-04-14T13:31:44.050Z,85.19
2019-04-14T13:34:14.370Z,85.50
2019-04-14T13:36:44.603Z,85.06
2019-04-14T13:39:14.590Z,84.65
2019-04-14T13:41:44.536Z,85.44
2019-04-14T13:44:14.484Z,86.08
2019-04-14T13:46:44.783Z,85.81
2019-04-14T13:49:15.213Z,85.52
2019-04-14T13:51:45.133Z,85.44
2019-04-14T13:54:16.050Z,84.92
2019-04-14T13:56:46.027Z,84.77
2019-04-14T13:59:16.018Z,84.78
2019-04-14T14:01:45.934Z,84.77
2019-04-14T14:04:15.891Z,84.56
2019-04-14T14:06:46.930Z,84.80
2019-04-14T14:09:17.959Z,84.80
2019-04-14T14:12:15.996Z,85.39
2019-04-14T14:14:59.544Z,84.65
2019-04-14T14:17:40.877Z,84.92
2019-04-14T14:20:48.583Z,84.79
2019-04-14T14:23:36.958Z,84.81
2019-04-14T14:26:10.496Z,84.77
2019-04-14T14:28:40.744Z,84.68
2019-04-14T14:31:10.706Z,85.10
2019-04-14T14:33:40.671Z,85.21
2019-04-14T14:36:10.924Z,83.91
2019-04-14T14:38:40.858Z,84.10
2019-04-14T14:41:13.023Z,84.04
2019-04-14T14:43:43.239Z,84.05
2019-04-14T14:46:21.850Z,83.59
2019-04-14T14:49:08.811Z,84.33
2019-04-14T14:51:51.251Z,83.98
2019-04-14T14:54:22.209Z,83.56
2019-04-14T14:56:52.138Z,83.62
2019-04-14T14:59:22.133Z,83.54
2019-04-14T15:01:52.292Z,83.77
2019-04-14T15:08:10.279Z,84.05
2019-04-14T15:10:40.200Z,82.95
2019-04-14T15:13:10.293Z,82.59
2019-04-14T15:15:40.458Z,83.15
2019-04-14T15:18:10.788Z,83.27
2019-04-14T15:20:41.006Z,83.55
2019-04-14T15:23:24.054Z,83.34
2019-04-14T15:25:42.962Z,83.34
2019-04-14T15:28:15.650Z,83.96
2019-04-14T15:30:45.417Z,83.93
2019-04-14T15:33:15.310Z,83.80
2019-04-14T15:35:45.227Z,84.60
2019-04-14T15:38:15.094Z,84.18
2019-04-14T15:40:44.995Z,83.87
2019-04-14T15:43:15.492Z,83.26
2019-04-14T15:45:45.354Z,83.10
2019-04-14T15:48:15.617Z,83.27
2019-04-14T15:50:45.855Z,83.08
2019-04-14T15:53:16.360Z,82.98
2019-04-14T15:55:46.223Z,82.81
2019-04-14T15:58:37.792Z,82.86
2019-04-14T16:01:31.560Z,82.19
2019-04-14T16:04:10.772Z,82.07
2019-04-14T16:06:59.678Z,81.93
2019-04-14T16:09:41.083Z,81.79
2019-04-14T16:12:28.625Z,81.86
2019-04-14T16:15:20.029Z,82.11
2019-04-14T16:18:05.604Z,82.40
2019-04-14T16:20:37.777Z,82.65
2019-04-14T16:23:07.961Z,83.21
2019-04-14T16:25:56.772Z,82.51
2019-04-14T16:28:33.178Z,82.70
2019-04-14T16:31:18.508Z,82.32
2019-04-14T16:34:07.344Z,82.23
2019-04-14T16:36:37.220Z,82.16
2019-04-14T16:39:07.682Z,81.77
2019-04-14T16:41:37.684Z,82.54
2019-04-14T16:44:07.580Z,83.11
2019-04-14T16:46:37.860Z,82.65
2019-04-14T16:49:07.743Z,82.07
2019-04-14T16:51:43.869Z,82.32
2019-04-14T16:54:32.833Z,82.42
2019-04-14T16:57:21.054Z,82.05
2019-04-14T16:59:51.188Z,82.30
2019-04-14T17:02:21.163Z,82.67
2019-04-14T17:04:51.013Z,82.93
2019-04-14T17:07:21.056Z,83.00
2019-04-14T17:09:50.986Z,83.31
2019-04-14T17:12:20.883Z,83.14
2019-04-14T17:14:58.467Z,82.75
2019-04-14T17:17:57.138Z,82.97
2019-04-14T17:20:42.674Z,82.91
2019-04-14T17:23:33.469Z,82.84
2019-04-14T17:26:22.320Z,83.16
2019-04-14T17:29:03.027Z,83.66
2019-04-14T17:31:49.784Z,83.95
2019-04-14T17:34:25.479Z,84.03
2019-04-14T17:37:09.511Z,84.41
2019-04-14T17:39:44.578Z,84.57
2019-04-14T17:42:36.751Z,84.85
2019-04-14T17:45:38.934Z,85.14
2019-04-14T17:48:27.159Z,85.69
2019-04-14T17:51:03.490Z,85.83
2019-04-14T17:53:49.233Z,86.13
2019-04-14T17:56:26.166Z,86.36
2019-04-14T17:59:15.249Z,86.73
2019-04-14T18:02:02.726Z,87.08
2019-04-14T18:04:49.184Z,87.37
2019-04-14T18:07:26.038Z,87.69
2019-04-14T18:10:13.487Z,88.03
2019-04-14T18:12:59.000Z,88.30
2019-04-14T18:15:33.678Z,88.70
2019-04-14T18:18:14.089Z,88.81
2019-04-14T18:20:50.170Z,88.68
2019-04-14T18:23:20.334Z,88.61
2019-04-14T18:25:50.536Z,88.56
2019-04-14T18:28:45.458Z,88.57
2019-04-14T18:31:34.291Z,88.53
2019-04-14T18:34:26.035Z,88.38
2019-04-14T18:37:07.772Z,88.19
2019-04-14T18:40:11.711Z,88.11
2019-04-14T18:43:09.907Z,87.92
2019-04-14T18:45:54.477Z,87.94
2019-04-14T18:48:46.317Z,87.86
2019-04-14T18:51:34.275Z,87.73
2019-04-14T18:54:17.113Z,87.88
2019-04-14T18:56:54.236Z,87.88
2019-04-14T18:59:29.450Z,87.86
2019-04-14T19:01:59.408Z,88.03
2019-04-14T19:04:30.159Z,88.05
2019-04-14T19:07:00.061Z,88.04
2019-04-14T19:09:30.179Z,87.97
2019-04-14T19:12:18.427Z,88.02
2019-04-14T19:14:49.989Z,88.06
2019-04-14T19:17:26.608Z,88.00
2019-04-14T19:20:02.085Z,88.14
2019-04-14T19:22:28.449Z,88.28
2019-04-14T19:25:07.874Z,88.28
2019-04-14T19:27:32.150Z,88.32
2019-04-14T19:30:03.006Z,88.14
2019-04-14T19:32:33.127Z,87.80
2019-04-14T19:35:03.378Z,87.38
2019-04-14T19:37:33.551Z,86.93
2019-04-14T19:40:03.615Z,86.52
2019-04-14T19:42:33.600Z,86.23
2019-04-14T19:45:03.600Z,86.02
2019-04-14T19:47:34.767Z,85.98
2019-04-14T19:50:05.312Z,85.70
2019-04-14T19:52:35.816Z,85.40
2019-04-14T19:55:06.076Z,85.41
2019-04-14T19:57:36.218Z,85.17
2019-04-14T20:00:07.493Z,85.00
2019-04-14T20:02:37.743Z,85.04
2019-04-14T20:05:08.289Z,85.29
2019-04-14T20:07:38.547Z,85.23
2019-04-14T20:10:09.493Z,85.09
2019-04-14T20:12:39.498Z,84.62
2019-04-14T20:15:11.452Z,84.38
2019-04-14T20:18:07.005Z,83.72
2019-04-14T20:21:02.062Z,83.29
2019-04-14T20:23:37.045Z,82.81
2019-04-14T20:26:22.044Z,82.04
2019-04-14T20:29:03.927Z,81.89
2019-04-14T20:31:39.372Z,81.50
2019-04-14T20:34:09.293Z,80.93
2019-04-14T20:36:39.256Z,80.66
2019-04-14T20:39:15.136Z,79.40
2019-04-14T20:41:45.447Z,79.26
2019-04-14T20:44:16.007Z,78.26
2019-04-14T20:46:46.173Z,77.66
2019-04-14T20:49:16.456Z,77.29
2019-04-14T20:51:46.424Z,76.79
2019-04-14T20:54:16.716Z,75.97
2019-04-14T20:56:47.178Z,75.61
2019-04-14T20:59:17.165Z,75.50
2019-04-14T21:01:59.501Z,74.96
2019-04-14T21:04:48.360Z,74.96
2019-04-14T21:07:46.230Z,74.95
2019-04-14T21:10:23.254Z,74.39
2019-04-14T21:13:17.556Z,73.56
2019-04-14T21:15:55.463Z,73.26
2019-04-14T21:18:41.808Z,73.31
2019-04-14T21:21:22.036Z,73.33
2019-04-14T21:24:03.276Z,73.22
2019-04-14T21:26:47.688Z,73.24
2019-04-14T21:29:37.225Z,72.30
2019-04-14T21:32:13.567Z,71.64
2019-04-14T21:34:51.534Z,71.18
2019-04-14T21:37:39.309Z,71.66
2019-04-14T21:40:15.604Z,71.32
2019-04-14T21:42:46.135Z,71.18
2019-04-14T21:45:16.210Z,71.05
2019-04-14T21:47:46.621Z,70.21
2019-04-14T21:50:16.860Z,69.58
2019-04-14T21:52:49.953Z,68.75
2019-04-14T21:55:20.064Z,68.52
2019-04-14T21:57:55.321Z,68.49
2019-04-14T22:01:30.665Z,67.99
2019-04-14T22:04:18.546Z,67.69
2019-04-14T22:06:49.747Z,68.01
2019-04-14T22:09:31.025Z,67.76
2019-04-14T22:12:02.194Z,67.49
2019-04-14T22:14:32.086Z,68.01
2019-04-14T22:17:02.145Z,68.18
2019-04-14T22:19:32.020Z,67.81
2019-04-14T22:22:01.988Z,67.64
2019-04-14T22:24:32.238Z,66.88
2019-04-14T22:27:02.437Z,67.24
2019-04-14T22:29:32.316Z,67.69
2019-04-14T22:32:02.610Z,67.48
2019-04-14T22:34:32.532Z,67.46
2019-04-14T22:37:02.373Z,66.92
2019-04-14T22:39:32.551Z,67.54
2019-04-14T22:42:02.445Z,67.56
2019-04-14T22:44:32.433Z,67.65
2019-04-14T22:47:02.528Z,67.97
2019-04-14T22:49:32.726Z,67.24
2019-04-14T22:52:02.622Z,67.87
2019-04-14T22:54:32.757Z,67.24
2019-04-14T22:57:02.706Z,67.75
2019-04-14T22:59:32.850Z,67.61
2019-04-14T23:02:11.581Z,66.83
2019-04-14T23:04:47.345Z,67.35
2019-04-14T23:07:48.283Z,67.29
2019-04-14T23:10:27.642Z,67.09
2019-04-14T23:13:11.822Z,67.06
2019-04-14T23:15:54.198Z,67.48
2019-04-14T23:18:34.652Z,67.41
2019-04-14T23:21:41.855Z,67.77
2019-04-14T23:24:14.871Z,67.56
2019-04-14T23:26:52.542Z,66.83
2019-04-14T23:29:16.457Z,66.77
2019-04-14T23:31:46.571Z,66.82
2019-04-14T23:34:16.503Z,66.73
2019-04-14T23:36:46.382Z,66.39
2019-04-14T23:39:16.407Z,66.54
2019-04-14T23:41:46.602Z,66.62
2019-04-14T23:44:16.492Z,66.50
2019-04-14T23:46:46.354Z,66.39
2019-04-14T23:49:16.271Z,66.87
2019-04-14T23:51:46.169Z,67.00
2019-04-14T23:54:16.182Z,66.67
2019-04-14T23:56:46.056Z,67.24
2019-04-14T23:59:15.914Z,67.33
